Lansdowne House Airport
CYLH : now visible

Airfield :











YOU CAN JOIN US ON...

 
LOGIN :

Register | Disclaimer

   EN    FR    IT 

 









Legend :    VFR   Marginal VFR   IFR   Intensive IFR   Very Intensive IFR
Visi :
Ceiling :
>= 8 km
>= 3000ft
5 to 8 km
1000 to 3000 ft
1500m to 5 km
500 to 1000 ft
800 to 1500m
200 to 500 ft
< 800m
< 200 ft
Symbols :   Thunderstorms  Fog  Heavy snow  Heavy precipitations  Wind > 20 kt






- Airport Elevation : 834 ft
- IATA code : YLH


CYLH - Lansdowne House

CURRENT METAR :
  • 021611Z AUTO 28013G20KT 260V340 9SM FEW009 OVC014 11/10 A2982 RMK SLP109

EXPIRED METARs :
  • 021601Z AUTO 30009G16KT 260V330 9SM BKN010 OVC018 10/10 A2982 RMK SLP108
  • 021548Z AUTO 29009G16KT 7SM -RA BKN010 BKN013 OVC096 10/10 A2982 RMK SLP108
  • 021541Z AUTO 29009G16KT 6SM -RA BR OVC008 10/10 A2981 RMK SLP107
  • 021531Z AUTO 28008KT 250V310 3SM -RA BR BKN008 OVC120 10/10 A2981 RMK SLP107
  • 021516Z AUTO 28008KT 240V300 9SM BKN008 OVC110 09/09 A2980 RMK SLP104
  • 021508Z AUTO 27006KT 220V300 3SM -RA BR BKN008 OVC110 09/09 A2980 RMK SLP103
  • 021455Z AUTO 27005KT 240V310 2 1/2SM -RA BR SCT006 BKN011 BKN100 OVC120 09/09 A2980 RMK SLP103
  • 021450Z AUTO 28007KT 2 1/2SM BR BKN009 BKN100 OVC120 08/08 A2980 RMK SLP104
  • 020307Z AUTO 27016G31KT 5SM -RA BR BKN016 BKN130 OVC150 10/10 A2952 RMK SLP007 DENSITY ALT 900FT
  • 021433Z AUTO 26005KT 220V290 1 3/4SM -RA BR BKN007 OVC110 08/08 A2980 RMK SLP104
  • 021424Z AUTO 26006KT 230V310 2 1/4SM BR SCT009 BKN019 OVC110 08/08 A2980 RMK SLP104
  • 021408Z AUTO 27004KT 240V330 5SM BR SCT009 BKN021 OVC100 08/08 A2980 RMK SLP104
  • 021358Z AUTO 30007KT 250V320 6SM BR SCT007 BKN023 OVC100 08/07 A2980 RMK SLP103
  • 021353Z AUTO 29010KT 250V340 4SM BR SCT007 BKN025 BKN043 OVC100 08/08 A2980 RMK SLP103
  • 021346Z AUTO 30006KT 240V340 2 1/2SM -RA BR BKN007 BKN023 BKN045 OVC120 08/08 A2980 RMK SLP103
  • 021324Z AUTO 28005KT 260V340 2 1/2SM -RA BR BKN009 OVC100 07/07 A2980 RMK SLP102
  • 021314Z AUTO 29007KT 250V350 4SM -RA BR BKN011 OVC100 07/07 A2980 RMK SLP102

TAF N/A
CZWG FIR / North America



MET'MAP, your aeronautical weather chart ! - Copyright ORBIFLY December 2007 - Disclaimer

ORBIFLY MET'MAP TEAM :

Programming & Development : Alexandra Zaïnal
Original concept : Baudouin d'Aumeries
Technical & hardware support : Manuel Goepfert
Assistance : Marc-Olivier Méhu




SOURCES & CREDITS :

   NOAA       Earth
Advisory